createdAt,value
2017-11-01T00:00:57.512Z,42.60
2017-11-01T00:03:26.349Z,43.80
2017-11-01T00:05:54.429Z,43.80
2017-11-01T00:08:22.500Z,45.50
2017-11-01T00:10:50.571Z,45.20
2017-11-01T00:13:18.651Z,43.70
2017-11-01T00:15:47.520Z,43.90
2017-11-01T00:18:15.588Z,43.80
2017-11-01T00:20:43.673Z,44.00
2017-11-01T00:23:11.748Z,44.20
2017-11-01T00:25:39.831Z,45.40
2017-11-01T00:28:08.668Z,44.20
2017-11-01T00:30:37.519Z,43.00
2017-11-01T00:33:06.368Z,43.90
2017-11-01T00:35:34.481Z,43.70
2017-11-01T00:38:03.329Z,43.20
2017-11-01T00:40:31.405Z,43.20
2017-11-01T00:42:59.480Z,43.00
2017-11-01T00:45:27.552Z,42.70
2017-11-01T00:47:55.640Z,42.80
2017-11-01T00:50:23.740Z,43.40
2017-11-01T00:52:52.592Z,43.10
2017-11-01T00:55:20.675Z,43.10
2017-11-01T00:57:48.759Z,43.20
2017-11-01T01:00:16.834Z,43.70
2017-11-01T01:02:44.903Z,43.80
2017-11-01T01:05:13.748Z,45.10
2017-11-01T01:07:41.866Z,45.00
2017-11-01T01:10:09.939Z,44.60
2017-11-01T01:12:38.015Z,45.00
2017-11-01T01:15:06.868Z,45.00
2017-11-01T01:17:34.957Z,44.90
2017-11-01T01:20:03.036Z,45.40
2017-11-01T01:22:31.112Z,45.60
2017-11-01T01:24:59.184Z,45.10
2017-11-01T01:27:28.055Z,45.30
2017-11-01T01:29:56.134Z,45.20
2017-11-01T01:32:24.220Z,45.00
2017-11-01T01:34:52.288Z,44.30
2017-11-01T01:37:20.591Z,44.90
2017-11-01T01:39:49.432Z,44.70
2017-11-01T01:42:17.513Z,44.60
2017-11-01T01:44:45.589Z,44.80
2017-11-01T01:47:13.675Z,45.50
2017-11-01T01:49:41.752Z,45.70
2017-11-01T01:52:09.842Z,45.70
2017-11-01T01:54:38.686Z,44.50
2017-11-01T01:57:06.770Z,44.40
2017-11-01T01:59:34.919Z,45.20
2017-11-01T02:02:03.778Z,43.90
2017-11-01T02:04:32.619Z,44.40
2017-11-01T02:07:00.702Z,44.30
2017-11-01T02:09:28.778Z,44.20
2017-11-01T02:11:56.864Z,43.30
2017-11-01T02:14:24.932Z,43.50
2017-11-01T02:16:53.013Z,44.20
2017-11-01T02:19:21.089Z,44.30
2017-11-01T02:21:49.168Z,43.40
2017-11-01T02:24:18.004Z,44.10
2017-11-01T02:26:46.096Z,44.00
2017-11-01T02:29:14.176Z,42.70
2017-11-01T02:31:42.256Z,43.20
2017-11-01T02:34:10.329Z,43.00
2017-11-01T02:36:38.409Z,43.00
2017-11-01T02:39:06.472Z,44.30
2017-11-01T02:41:34.556Z,43.50
2017-11-01T02:44:02.632Z,42.80
2017-11-01T02:46:31.476Z,42.70
2017-11-01T02:48:59.552Z,42.80
2017-11-01T02:51:27.633Z,43.40
2017-11-01T02:53:55.713Z,44.50
2017-11-01T02:56:23.797Z,43.80
2017-11-01T02:58:51.872Z,43.30
2017-11-01T03:01:19.951Z,43.60
2017-11-01T03:03:48.795Z,44.80
2017-11-01T03:06:16.889Z,44.70
2017-11-01T03:08:44.959Z,44.80
2017-11-01T03:11:13.035Z,45.30
2017-11-01T03:13:41.132Z,46.60
2017-11-01T03:16:09.214Z,46.00
2017-11-01T03:18:38.076Z,45.40
2017-11-01T03:21:06.199Z,45.30
2017-11-01T03:23:34.279Z,46.30
2017-11-01T03:26:02.365Z,45.50
2017-11-01T03:28:30.459Z,46.20
2017-11-01T03:30:58.538Z,46.20
2017-11-01T03:33:26.635Z,45.80
2017-11-01T03:35:54.708Z,46.80
2017-11-01T03:38:22.791Z,46.20
2017-11-01T03:40:51.639Z,47.60
2017-11-01T03:43:19.714Z,47.60
2017-11-01T03:45:47.791Z,47.60
2017-11-01T03:48:15.877Z,47.60
2017-11-01T03:50:43.947Z,48.20
2017-11-01T03:53:12.032Z,47.60
2017-11-01T03:55:40.118Z,48.60
2017-11-01T03:58:08.967Z,47.70
2017-11-01T04:00:37.044Z,47.60
2017-11-01T04:03:05.140Z,48.60
2017-11-01T04:05:33.220Z,49.90
2017-11-01T04:08:02.084Z,48.50
2017-11-01T04:10:30.170Z,48.50
2017-11-01T04:12:58.248Z,47.70
2017-11-01T04:15:26.321Z,48.80
2017-11-01T04:17:54.401Z,47.70
2017-11-01T04:20:25.573Z,48.50
2017-11-01T04:22:53.663Z,48.50
2017-11-01T04:25:21.737Z,48.80
2017-11-01T04:27:50.585Z,48.60
2017-11-01T04:30:19.437Z,47.90
2017-11-01T04:32:47.529Z,47.90
2017-11-01T04:35:15.605Z,47.80
2017-11-01T04:37:43.687Z,47.80
2017-11-01T04:40:11.756Z,47.80
2017-11-01T04:42:39.844Z,47.80
2017-11-01T04:45:08.693Z,47.70
2017-11-01T04:47:43.293Z,47.60
2017-11-01T04:50:11.384Z,48.70
2017-11-01T04:52:40.388Z,47.80
2017-11-01T04:55:12.541Z,49.10
2017-11-01T04:57:41.384Z,47.80
2017-11-01T05:00:15.844Z,47.90
2017-11-01T05:02:43.923Z,47.80
2017-11-01T05:05:15.263Z,46.40
2017-11-01T05:07:43.348Z,46.30
2017-11-01T05:10:16.400Z,45.20
2017-11-01T05:12:45.252Z,46.30
2017-11-01T05:15:13.679Z,46.20
2017-11-01T05:17:41.768Z,45.20
2017-11-01T05:20:10.617Z,45.70
2017-11-01T05:22:38.900Z,45.70
2017-11-01T05:25:07.740Z,45.30
2017-11-01T05:27:35.824Z,45.30
2017-11-01T05:30:03.895Z,44.90
2017-11-01T05:32:31.988Z,45.50
2017-11-01T05:35:00.074Z,44.90
2017-11-01T05:37:28.161Z,44.20
2017-11-01T05:39:57.004Z,45.70
2017-11-01T05:42:25.096Z,45.70
2017-11-01T05:44:53.169Z,45.00
2017-11-01T05:47:21.251Z,44.50
2017-11-01T05:49:49.324Z,45.70
2017-11-01T05:52:17.399Z,45.40
2017-11-01T05:54:45.472Z,45.50
2017-11-01T05:57:16.803Z,44.80
2017-11-01T05:59:44.912Z,44.80
2017-11-01T06:02:13.012Z,46.30
2017-11-01T06:04:41.084Z,45.70
2017-11-01T06:07:09.173Z,46.30
2017-11-01T06:09:37.262Z,46.60
2017-11-01T06:12:05.341Z,46.90
2017-11-01T06:14:33.428Z,48.00
2017-11-01T06:17:01.502Z,48.00
2017-11-01T06:19:29.586Z,48.00
2017-11-01T06:21:58.427Z,48.00
2017-11-01T06:24:26.507Z,48.00
2017-11-01T06:26:54.580Z,48.30
2017-11-01T06:29:23.561Z,48.20
2017-11-01T06:31:51.643Z,48.20
2017-11-01T06:34:19.725Z,49.60
2017-11-01T06:36:47.800Z,50.70
2017-11-01T06:39:15.892Z,50.90
2017-11-01T06:41:43.972Z,51.40
2017-11-01T06:44:12.832Z,52.90
2017-11-01T06:46:40.908Z,52.80
2017-11-01T06:49:08.993Z,53.10
2017-11-01T06:51:37.066Z,52.90
2017-11-01T06:54:05.152Z,54.00
2017-11-01T06:56:33.216Z,54.00
2017-11-01T06:59:01.296Z,52.80
2017-11-01T07:01:29.367Z,53.40
2017-11-01T07:03:58.216Z,54.00
2017-11-01T07:06:26.292Z,53.90
2017-11-01T07:08:54.374Z,53.10
2017-11-01T07:11:22.443Z,54.00
2017-11-01T07:13:50.522Z,53.50
2017-11-01T07:16:18.605Z,54.00
2017-11-01T07:18:46.805Z,53.60
2017-11-01T07:21:15.634Z,53.60
2017-11-01T07:23:43.715Z,53.60
2017-11-01T07:26:11.796Z,53.30
2017-11-01T07:28:39.886Z,52.80
2017-11-01T07:31:07.965Z,53.10
2017-11-01T07:33:36.047Z,53.10
2017-11-01T07:36:04.889Z,52.40
2017-11-01T07:38:32.985Z,52.30
2017-11-01T07:41:01.066Z,52.60
2017-11-01T07:43:29.151Z,52.50
2017-11-01T07:45:57.232Z,52.70
2017-11-01T07:48:26.093Z,53.00
2017-11-01T07:50:54.175Z,52.90
2017-11-01T07:53:22.268Z,52.10
2017-11-01T07:55:51.100Z,51.00
2017-11-01T07:58:19.957Z,50.20
2017-11-01T08:00:48.809Z,49.40
2017-11-01T08:03:16.927Z,49.40
2017-11-01T08:05:45.771Z,48.40
2017-11-01T08:08:13.851Z,48.40
2017-11-01T08:10:41.943Z,48.70
2017-11-01T08:13:10.020Z,47.50
2017-11-01T08:15:38.139Z,46.00
2017-11-01T08:18:07.012Z,45.70
2017-11-01T08:20:35.109Z,45.60
2017-11-01T08:23:03.196Z,44.80
2017-11-01T08:25:31.311Z,44.00
2017-11-01T08:28:00.173Z,44.20
2017-11-01T08:30:28.265Z,44.20
2017-11-01T08:32:56.335Z,44.20
2017-11-01T08:35:24.422Z,43.00
2017-11-01T08:37:53.272Z,44.10
2017-11-01T08:40:21.356Z,43.90
2017-11-01T08:42:49.435Z,42.90
2017-11-01T08:45:17.521Z,43.20
2017-11-01T08:47:46.367Z,43.70
2017-11-01T08:50:14.451Z,43.70
2017-11-01T08:52:42.523Z,43.70
2017-11-01T08:55:11.137Z,43.20
2017-11-01T08:57:39.264Z,42.90
2017-11-01T09:00:07.427Z,43.00
2017-11-01T09:02:35.524Z,42.90
2017-11-01T09:05:03.639Z,43.10
2017-11-01T09:07:32.500Z,42.60
2017-11-01T09:10:00.589Z,42.40
2017-11-01T09:12:28.681Z,41.60
2017-11-01T09:14:57.548Z,41.60
2017-11-01T09:17:25.655Z,41.50
2017-11-01T09:19:54.512Z,40.50
2017-11-01T09:22:22.601Z,40.40
2017-11-01T09:24:50.681Z,40.40
2017-11-01T09:27:19.525Z,41.20
2017-11-01T09:29:47.628Z,41.20
2017-11-01T09:32:15.714Z,40.90
2017-11-01T09:34:44.592Z,43.40
2017-11-01T09:37:12.668Z,44.10
2017-11-01T09:39:40.743Z,43.00
2017-11-01T09:42:08.828Z,42.90
2017-11-01T09:44:36.952Z,42.90
2017-11-01T09:47:05.037Z,43.30
2017-11-01T09:49:33.128Z,40.80
2017-11-01T09:52:01.223Z,40.90
2017-11-01T09:54:30.101Z,40.80
2017-11-01T09:56:58.179Z,40.80
2017-11-01T09:59:27.035Z,41.50
2017-11-01T10:01:55.115Z,40.80
2017-11-01T10:04:23.204Z,41.20
2017-11-01T10:06:51.282Z,39.40
2017-11-01T10:09:19.395Z,39.90
2017-11-01T10:11:47.468Z,38.40
2017-11-01T10:14:15.555Z,38.90
2017-11-01T10:16:44.386Z,38.00
2017-11-01T10:19:12.475Z,38.00
2017-11-01T10:21:41.386Z,36.60
2017-11-01T10:24:09.476Z,36.60
2017-11-01T10:26:37.699Z,36.90
2017-11-01T10:29:05.771Z,37.60
2017-11-01T10:31:33.848Z,37.80
2017-11-01T10:34:01.924Z,39.20
2017-11-01T10:36:30.771Z,37.80
2017-11-01T10:38:58.859Z,37.80
2017-11-01T10:41:26.939Z,38.70
2017-11-01T10:43:55.029Z,38.20
2017-11-01T10:46:23.105Z,38.50
2017-11-01T10:48:51.189Z,41.00
2017-11-01T10:51:20.036Z,35.70
2017-11-01T10:53:48.114Z,35.60
2017-11-01T10:56:16.204Z,35.60
2017-11-01T10:58:44.280Z,35.70
2017-11-01T11:01:12.380Z,35.00
2017-11-01T11:03:40.452Z,34.40
2017-11-01T11:06:08.550Z,35.60
2017-11-01T11:08:36.637Z,35.80
2017-11-01T11:11:04.720Z,35.50
2017-11-01T11:13:32.799Z,32.70
2017-11-01T11:16:00.887Z,33.50
2017-11-01T11:18:28.957Z,33.80
2017-11-01T11:20:57.041Z,35.00
2017-11-01T11:23:25.123Z,35.50
2017-11-01T11:25:53.971Z,33.90
2017-11-01T11:28:22.052Z,33.90
2017-11-01T11:30:50.134Z,34.30
2017-11-01T11:33:18.210Z,32.60
2017-11-01T11:35:46.293Z,32.40
2017-11-01T11:38:14.371Z,32.70
2017-11-01T11:40:43.223Z,32.50
2017-11-01T11:43:11.305Z,32.50
2017-11-01T11:45:39.383Z,32.80
2017-11-01T11:48:07.454Z,32.00
2017-11-01T11:50:35.544Z,32.00
2017-11-01T11:53:03.616Z,32.00
2017-11-01T11:55:31.697Z,32.20
2017-11-01T11:58:00.550Z,32.10
2017-11-01T12:00:28.640Z,32.10
2017-11-01T12:02:56.725Z,32.10
2017-11-01T12:05:24.808Z,32.80
2017-11-01T12:07:53.648Z,32.20
2017-11-01T12:10:21.739Z,32.20
2017-11-01T12:12:49.833Z,32.80
2017-11-01T12:15:17.924Z,32.20
2017-11-01T12:17:46.771Z,32.30
2017-11-01T12:20:14.855Z,32.20
2017-11-01T12:22:42.971Z,31.90
2017-11-01T12:25:11.047Z,32.50
2017-11-01T12:27:39.137Z,31.60
2017-11-01T12:30:07.233Z,31.20
2017-11-01T12:32:35.308Z,31.20
2017-11-01T12:35:03.388Z,31.30
2017-11-01T12:37:31.511Z,31.60
2017-11-01T12:39:59.583Z,31.80
2017-11-01T12:42:27.689Z,32.60
2017-11-01T12:44:55.779Z,31.30
2017-11-01T12:47:23.873Z,30.60
2017-11-01T12:49:51.952Z,30.90
2017-11-01T12:52:20.811Z,30.00
2017-11-01T12:54:48.892Z,30.00
2017-11-01T12:57:17.000Z,31.00
2017-11-01T12:59:45.844Z,31.60
2017-11-01T13:02:13.933Z,30.90
2017-11-01T13:04:42.016Z,31.10
2017-11-01T13:07:10.107Z,32.50
2017-11-01T13:09:38.964Z,31.20
2017-11-01T13:12:07.051Z,31.10
2017-11-01T13:14:35.128Z,30.60
2017-11-01T13:17:03.311Z,30.50
2017-11-01T13:19:32.168Z,30.60
2017-11-01T13:22:00.468Z,30.60
2017-11-01T13:24:28.683Z,30.70
2017-11-01T13:26:56.772Z,31.90
2017-11-01T13:29:24.852Z,31.50
2017-11-01T13:31:52.960Z,31.60
2017-11-01T13:34:21.089Z,32.00
2017-11-01T13:36:49.187Z,32.40
2017-11-01T13:39:17.268Z,30.80
2017-11-01T13:41:55.291Z,30.00
2017-11-01T13:44:24.076Z,31.00
2017-11-01T13:46:52.155Z,30.00
2017-11-01T13:49:21.004Z,30.20
2017-11-01T13:51:49.852Z,31.00
2017-11-01T13:54:18.700Z,30.40
2017-11-01T13:56:46.806Z,30.30
2017-11-01T13:59:15.669Z,31.10
2017-11-01T14:01:43.801Z,31.10
2017-11-01T14:04:11.868Z,31.00
2017-11-01T14:06:39.959Z,31.10
2017-11-01T14:09:08.115Z,31.10
2017-11-01T14:11:36.226Z,31.70
2017-11-01T14:14:04.316Z,31.00
2017-11-01T14:16:32.464Z,31.30
2017-11-01T14:19:00.545Z,31.30
2017-11-01T14:21:28.643Z,31.90
2017-11-01T14:23:56.724Z,42.70
2017-11-01T14:26:25.719Z,32.20
2017-11-01T14:28:53.802Z,32.00
2017-11-01T14:31:22.652Z,32.90
2017-11-01T14:33:50.746Z,32.80
2017-11-01T14:36:18.837Z,32.70
2017-11-01T14:38:47.763Z,32.90
2017-11-01T14:41:15.867Z,32.60
2017-11-01T14:43:43.952Z,32.80
2017-11-01T14:46:12.053Z,32.60
2017-11-01T14:48:40.903Z,32.80
2017-11-01T14:51:08.991Z,32.70
2017-11-01T14:53:37.075Z,32.70
2017-11-01T14:56:05.948Z,32.80
2017-11-01T14:58:34.019Z,32.80
2017-11-01T15:01:02.124Z,32.80
2017-11-01T15:03:30.972Z,32.90
2017-11-01T15:05:59.060Z,32.80
2017-11-01T15:08:27.138Z,32.90
2017-11-01T15:10:55.216Z,32.70
2017-11-01T15:13:24.065Z,33.40
2017-11-01T15:15:52.179Z,33.40
2017-11-01T15:18:20.276Z,33.80
2017-11-01T15:20:49.141Z,32.70
2017-11-01T15:23:17.225Z,32.70
2017-11-01T15:25:46.076Z,33.10
2017-11-01T15:28:14.164Z,33.00
2017-11-01T15:30:42.239Z,33.40
2017-11-01T15:33:10.335Z,33.30
2017-11-01T15:35:38.407Z,33.00
2017-11-01T15:38:07.264Z,33.00
2017-11-01T15:40:35.344Z,33.00
2017-11-01T15:43:03.431Z,33.50
2017-11-01T15:45:31.520Z,33.90
2017-11-01T15:48:00.398Z,34.70
2017-11-01T15:50:28.470Z,34.70
2017-11-01T15:52:57.333Z,35.60
2017-11-01T15:55:25.420Z,35.60
2017-11-01T15:57:53.523Z,36.30
2017-11-01T16:00:22.364Z,36.60
2017-11-01T16:02:50.465Z,36.60
2017-11-01T16:05:18.550Z,36.60
2017-11-01T16:07:47.538Z,37.60
2017-11-01T16:10:17.349Z,37.40
2017-11-01T16:12:46.268Z,38.00
2017-11-01T16:15:15.652Z,37.90
2017-11-01T16:17:44.788Z,39.10
2017-11-01T16:20:12.894Z,39.10
2017-11-01T16:22:41.073Z,39.20
2017-11-01T16:25:09.474Z,39.50
2017-11-01T16:27:37.628Z,39.80
2017-11-01T16:30:05.796Z,40.20
2017-11-01T16:32:33.960Z,40.60
2017-11-01T16:35:02.046Z,40.60
2017-11-01T16:37:30.146Z,40.60
2017-11-01T16:39:59.009Z,41.00
2017-11-01T16:42:27.106Z,40.80
2017-11-01T16:44:55.988Z,41.60
2017-11-01T16:47:24.082Z,41.50
2017-11-01T16:49:52.947Z,42.10
2017-11-01T16:52:21.027Z,42.10
2017-11-01T16:54:49.174Z,42.40
2017-11-01T16:57:17.260Z,43.60
2017-11-01T16:59:45.343Z,44.50
2017-11-01T17:02:13.426Z,62.30
2017-11-01T17:04:42.276Z,45.10
2017-11-01T17:07:10.357Z,45.10
2017-11-01T17:09:38.456Z,45.70
2017-11-01T17:12:07.408Z,46.30
2017-11-01T17:14:35.480Z,46.10
2017-11-01T17:17:03.565Z,46.10
2017-11-01T17:19:31.640Z,46.20
2017-11-01T17:21:59.725Z,46.10
2017-11-01T17:24:27.799Z,46.10
2017-11-01T17:26:55.883Z,46.70
2017-11-01T17:29:23.962Z,46.60
2017-11-01T17:31:52.991Z,46.60
2017-11-01T17:34:21.082Z,46.60
2017-11-01T17:36:49.174Z,46.70
2017-11-01T17:39:17.259Z,47.70
2017-11-01T17:41:45.339Z,46.90
2017-11-01T17:44:13.419Z,46.10
2017-11-01T17:46:42.274Z,48.20
2017-11-01T17:49:10.364Z,48.20
2017-11-01T17:51:38.449Z,46.70
2017-11-01T17:54:06.520Z,46.80
2017-11-01T17:56:34.620Z,47.30
2017-11-01T17:59:02.690Z,45.70
2017-11-01T18:01:30.768Z,48.50
2017-11-01T18:03:59.628Z,49.60
2017-11-01T18:06:27.699Z,49.60
2017-11-01T18:08:55.884Z,47.80
2017-11-01T18:11:24.735Z,48.00
2017-11-01T18:13:52.820Z,47.90
2017-11-01T18:16:20.899Z,47.10
2017-11-01T18:18:48.983Z,46.10
2017-11-01T18:21:17.063Z,47.90
2017-11-01T18:23:45.921Z,45.90
2017-11-01T18:26:13.992Z,45.90
2017-11-01T18:28:42.080Z,45.80
2017-11-01T18:31:10.159Z,47.70
2017-11-01T18:33:38.235Z,47.70
2017-11-01T18:36:06.307Z,47.30
2017-11-01T18:38:34.388Z,48.20
2017-11-01T18:41:02.459Z,48.10
2017-11-01T18:43:30.537Z,48.00
2017-11-01T18:45:59.379Z,45.70
2017-11-01T18:48:27.464Z,45.70
2017-11-01T18:50:55.556Z,50.00
2017-11-01T18:53:23.645Z,48.50
2017-11-01T18:55:52.500Z,47.30
2017-11-01T18:58:20.658Z,47.20
2017-11-01T19:00:48.727Z,48.50
2017-11-01T19:03:16.820Z,47.90
2017-11-01T19:05:44.897Z,47.00
2017-11-01T19:08:12.980Z,49.20
2017-11-01T19:10:41.055Z,49.10
2017-11-01T19:13:09.144Z,47.40
2017-11-01T19:15:37.984Z,49.00
2017-11-01T19:18:06.072Z,48.90
2017-11-01T19:20:34.147Z,50.60
2017-11-01T19:23:02.240Z,48.90
2017-11-01T19:25:30.312Z,49.20
2017-11-01T19:27:58.386Z,50.00
2017-11-01T19:30:27.237Z,50.00
2017-11-01T19:32:55.328Z,49.20
2017-11-01T19:35:23.426Z,48.10
2017-11-01T19:37:51.509Z,48.80
2017-11-01T19:40:20.350Z,48.90
2017-11-01T19:42:48.443Z,48.80
2017-11-01T19:45:16.523Z,48.20
2017-11-01T19:47:44.620Z,49.00
2017-11-01T19:50:13.461Z,51.30
2017-11-01T19:52:41.538Z,51.20
2017-11-01T19:55:09.621Z,51.60
2017-11-01T19:57:37.733Z,51.70
2017-11-01T20:00:06.653Z,54.30
2017-11-01T20:02:34.736Z,54.10
2017-11-01T20:05:02.809Z,54.10
2017-11-01T20:07:30.900Z,53.20
2017-11-01T20:09:58.982Z,54.80
2017-11-01T20:12:27.066Z,53.70
2017-11-01T20:14:55.147Z,53.60
2017-11-01T20:17:23.228Z,53.50
2017-11-01T20:19:52.073Z,53.20
2017-11-01T20:22:20.154Z,53.20
2017-11-01T20:24:48.225Z,53.40
2017-11-01T20:27:16.389Z,52.80
2017-11-01T20:29:44.460Z,53.40
2017-11-01T20:32:12.547Z,53.70
2017-11-01T20:34:40.747Z,53.20
2017-11-01T20:37:08.828Z,52.20
2017-11-01T20:39:36.912Z,51.20
2017-11-01T20:42:05.757Z,50.40
2017-11-01T20:44:33.846Z,50.30
2017-11-01T20:47:01.925Z,51.50
2017-11-01T20:49:30.008Z,51.30
2017-11-01T20:51:58.856Z,49.70
2017-11-01T20:54:26.946Z,49.70
2017-11-01T20:56:55.031Z,48.70
2017-11-01T20:59:23.137Z,49.70
2017-11-01T21:01:51.213Z,49.90
2017-11-01T21:04:19.307Z,51.70
2017-11-01T21:06:47.440Z,49.70
2017-11-01T21:09:16.295Z,50.10
2017-11-01T21:11:44.373Z,50.00
2017-11-01T21:14:12.456Z,51.10
2017-11-01T21:16:40.537Z,51.30
2017-11-01T21:19:08.625Z,51.10
2017-11-01T21:21:37.465Z,53.10
2017-11-01T21:24:05.552Z,53.10
2017-11-01T21:26:33.636Z,52.10
2017-11-01T21:29:01.721Z,51.40
2017-11-01T21:31:29.791Z,51.40
2017-11-01T21:33:57.924Z,51.70
2017-11-01T21:36:25.992Z,52.90
2017-11-01T21:38:54.075Z,52.20
2017-11-01T21:41:22.151Z,51.90
2017-11-01T21:43:50.233Z,52.80
2017-11-01T21:46:18.304Z,54.10
2017-11-01T21:48:46.388Z,53.20
2017-11-01T21:51:14.447Z,54.00
2017-11-01T21:53:42.561Z,53.50
2017-11-01T21:56:11.400Z,53.70
2017-11-01T21:58:39.485Z,53.70
2017-11-01T22:01:07.560Z,54.00
2017-11-01T22:03:35.644Z,54.30
2017-11-01T22:06:03.715Z,55.00
2017-11-01T22:08:31.800Z,53.80
2017-11-01T22:10:59.882Z,54.00
2017-11-01T22:13:28.740Z,53.10
2017-11-01T22:15:56.813Z,53.00
2017-11-01T22:18:24.941Z,53.50
2017-11-01T22:20:53.004Z,53.80
2017-11-01T22:23:21.087Z,54.40
2017-11-01T22:25:49.161Z,54.30
2017-11-01T22:28:17.260Z,54.10
2017-11-01T22:30:45.341Z,53.20
2017-11-01T22:33:13.419Z,53.20
2017-11-01T22:35:41.507Z,53.00
2017-11-01T22:38:09.592Z,52.70
2017-11-01T22:40:37.669Z,52.20
2017-11-01T22:43:06.529Z,52.40
2017-11-01T22:45:34.599Z,52.30
2017-11-01T22:48:02.683Z,52.80
2017-11-01T22:50:30.770Z,53.00
2017-11-01T22:52:58.849Z,53.20
2017-11-01T22:55:27.708Z,52.70
2017-11-01T22:57:55.788Z,52.60
2017-11-01T23:00:23.881Z,52.40
2017-11-01T23:02:51.951Z,53.00
2017-11-01T23:05:20.100Z,53.40
2017-11-01T23:07:48.179Z,53.20
2017-11-01T23:10:16.261Z,51.80
2017-11-01T23:12:44.333Z,52.30
2017-11-01T23:15:12.428Z,51.70
2017-11-01T23:17:41.267Z,52.10
2017-11-01T23:20:09.351Z,52.10
2017-11-01T23:22:37.427Z,51.80
2017-11-01T23:25:05.516Z,51.70
2017-11-01T23:27:33.588Z,51.80
2017-11-01T23:30:01.675Z,51.50
2017-11-01T23:32:29.748Z,51.90
2017-11-01T23:34:57.868Z,52.00
2017-11-01T23:37:25.939Z,51.70
2017-11-01T23:39:54.118Z,52.20
2017-11-01T23:42:22.188Z,51.80
2017-11-01T23:44:50.610Z,51.50
2017-11-01T23:47:18.675Z,52.00
2017-11-01T23:49:46.794Z,52.30
2017-11-01T23:52:14.912Z,52.50
2017-11-01T23:54:42.996Z,51.70
2017-11-01T23:57:11.075Z,51.90
2017-11-01T23:59:39.155Z,52.00
